EDT,Max TemperatureF,Mean TemperatureF,Min TemperatureF,Max Dew PointF,MeanDew PointF,Min DewpointF,Max Humidity, Mean Humidity, Min Humidity, Max Sea Level PressureIn, Mean Sea Level PressureIn, Min Sea Level PressureIn, Max VisibilityMiles, Mean VisibilityMiles, Min VisibilityMiles, Max Wind SpeedMPH, Mean Wind SpeedMPH, Max Gust SpeedMPH,PrecipitationIn, CloudCover, Events, WindDirDegrees
2012-6-1,71,63,57,57,52,46,93,67,56,30.02,29.95,29.82,10,10,10,17,10,25,0.00,3,,75
2012-6-2,75,66,60,64,57,47,100,79,45,29.78,29.70,29.66,10,6,0,15,10,25,1.25,6,Fog-Rain,317
2012-6-3,75,63,53,56,52,47,86,69,39,29.75,29.69,29.63,10,10,8,12,6,22,0.03,2,Rain-Thunderstorm,288
2012-6-4,62,56,51,53,49,44,90,78,57,29.81,29.68,29.62,10,9,3,13,5,20,0.16,6,Rain,35
2012-6-5,64,56,48,53,48,44,97,74,53,29.95,29.87,29.80,10,10,10,14,7,,0.00,6,,348
2012-6-6,71,60,50,55,51,46,100,76,44,29.99,29.96,29.93,10,8,0,8,2,,0.00,4,Fog,323
2012-6-7,75,65,55,57,53,47,97,68,38,29.97,29.94,29.89,10,10,9,8,3,,0.01,3,Rain,297
2012-6-8,81,67,55,61,55,52,90,66,39,29.93,29.88,29.82,10,10,10,10,5,23,0.01,2,Rain-Thunderstorm,320
2012-6-9,75,67,61,63,58,53,90,72,62,29.97,29.90,29.84,10,10,10,8,5,,0.00,4,Rain,296
2012-6-10,81,72,64,65,63,62,94,75,52,30.19,30.06,29.98,10,10,7,9,4,,0.00,4,Rain,138
2012-6-11,75,68,61,63,58,51,93,74,43,30.26,30.21,30.17,10,10,6,15,7,18,0.00,4,,121
2012-6-12,72,66,62,65,63,59,97,90,75,30.18,30.04,29.91,10,6,1,13,8,20,0.69,7,Rain,144
2012-6-13,70,66,63,64,62,60,97,90,76,30.06,29.95,29.87,10,6,0,16,6,24,0.49,7,Fog-Rain,75
2012-6-14,75,68,60,61,59,54,93,76,57,30.25,30.17,30.07,10,10,8,15,5,21,0.00,4,Rain,67
2012-6-15,75,67,59,59,53,46,96,66,38,30.30,30.27,30.23,10,10,7,12,4,,0.00,3,Rain,109
2012-6-16,77,65,55,57,54,48,90,66,38,30.32,30.27,30.23,10,10,10,10,5,16,0.00,1,,135
2012-6-17,70,62,55,57,54,51,89,75,53,30.24,30.18,30.10,10,10,7,10,5,,0.00,5,,132
2012-6-18,69,60,53,57,52,49,93,74,58,30.16,30.13,30.10,10,10,10,10,3,,0.00,4,,146
2012-6-19,77,65,55,64,60,54,93,80,64,30.17,30.12,30.07,10,10,10,9,3,,0.00,5,,168
2012-6-20,93,80,66,73,69,63,93,70,48,30.07,30.00,29.91,10,9,4,9,4,,0.00,0,,292
2012-6-21,93,83,75,71,69,66,85,62,44,29.94,29.85,29.76,10,10,9,12,6,,0.00,0,,293
2012-6-22,91,80,68,72,68,65,96,77,43,29.81,29.78,29.73,10,6,0,17,5,32,0.49,3,Rain-Thunderstorm,282
2012-6-23,82,74,66,68,61,53,96,67,38,29.97,29.87,29.80,10,8,2,14,5,18,0.00,3,Thunderstorm,317
2012-6-24,81,71,61,66,56,49,90,60,35,30.00,29.95,29.89,10,10,10,9,6,,0.02,3,Rain,281
2012-6-25,72,65,59,69,62,55,97,87,69,29.86,29.73,29.67,10,7,1,22,6,29,0.21,5,Rain-Thunderstorm,94
2012-6-26,71,62,53,54,50,46,82,62,47,29.75,29.70,29.66,10,10,10,22,13,30,0.00,4,,309
2012-6-27,81,70,61,53,49,46,63,49,30,29.81,29.73,29.69,10,10,10,17,9,25,0.00,1,,282
2012-6-28,87,75,64,65,57,51,76,53,38,29.82,29.77,29.71,10,10,8,12,7,,0.00,0,,290
2012-6-29,93,80,69,71,67,60,93,66,39,29.71,29.66,29.61,10,9,2,12,3,17,0.29,2,Rain-Thunderstorm,275
2012-6-30,91,81,71,68,62,58,79,55,35,29.77,29.73,29.65,10,10,10,14,6,18,0.00,0,,285